sensor_id;sensor_type;location;lat;lon;timestamp;temperature;humidity
76750;DHT22;66447;35.844;14.468;2023-06-10T00:01:47;25.07;118.99
76750;DHT22;66447;35.844;14.468;2023-06-10T00:16:48;25.73;118.99
76750;DHT22;66447;35.844;14.468;2023-06-10T00:31:49;23.61;118.99
76750;DHT22;66447;35.844;14.468;2023-06-10T00:46:50;24.25;118.99
76750;DHT22;66447;35.844;14.468;2023-06-10T01:01:53;23.90;118.99
76750;DHT22;66447;35.844;14.468;2023-06-10T01:16:54;24.15;118.99
76750;DHT22;66447;35.844;14.468;2023-06-10T01:32:22;24.36;118.99
76750;DHT22;66447;35.844;14.468;2023-06-10T01:47:22;24.36;118.99
76750;DHT22;66447;35.844;14.468;2023-06-10T02:02:22;23.72;118.99
76750;DHT22;66447;35.844;14.468;2023-06-10T02:17:25;24.76;118.99
76750;DHT22;66447;35.844;14.468;2023-06-10T02:32:27;24.31;118.99
76750;DHT22;66447;35.844;14.468;2023-06-10T02:47:28;24.84;118.99
76750;DHT22;66447;35.844;14.468;2023-06-10T03:02:29;25.06;118.99
76750;DHT22;66447;35.844;14.468;2023-06-10T03:17:32;25.72;118.99
76750;DHT22;66447;35.844;14.468;2023-06-10T03:32:33;25.03;118.99
76750;DHT22;66447;35.844;14.468;2023-06-10T03:47:34;24.21;118.99
76750;DHT22;66447;35.844;14.468;2023-06-10T04:02:38;24.88;118.99
76750;DHT22;66447;35.844;14.468;2023-06-10T04:17:46;25.24;118.99
76750;DHT22;66447;35.844;14.468;2023-06-10T04:32:47;25.40;118.99
76750;DHT22;66447;35.844;14.468;2023-06-10T04:47:48;27.64;118.99
76750;DHT22;66447;35.844;14.468;2023-06-10T05:02:49;26.10;118.99
76750;DHT22;66447;35.844;14.468;2023-06-10T05:17:51;27.52;118.99
76750;DHT22;66447;35.844;14.468;2023-06-10T05:32:52;26.34;118.99
76750;DHT22;66447;35.844;14.468;2023-06-10T05:47:54;27.07;118.99
76750;DHT22;66447;35.844;14.468;2023-06-10T06:02:55;27.10;118.99
76750;DHT22;66447;35.844;14.468;2023-06-10T06:17:57;27.51;118.99
76750;DHT22;66447;35.844;14.468;2023-06-10T06:32:58;27.75;118.99
76750;DHT22;66447;35.844;14.468;2023-06-10T06:47:59;27.31;118.99
76750;DHT22;66447;35.844;14.468;2023-06-10T07:03:00;26.15;118.99
76750;DHT22;66447;35.844;14.468;2023-06-10T07:18:01;27.08;118.99
76750;DHT22;66447;35.844;14.468;2023-06-10T07:33:02;27.76;118.99
76750;DHT22;66447;35.844;14.468;2023-06-10T07:48:03;27.30;118.99
76750;DHT22;66447;35.844;14.468;2023-06-10T08:03:04;25.73;118.99
76750;DHT22;66447;35.844;14.468;2023-06-10T08:18:05;24.77;118.99
76750;DHT22;66447;35.844;14.468;2023-06-10T08:33:06;25.78;118.99
76750;DHT22;66447;35.844;14.468;2023-06-10T08:48:07;26.37;118.99
76750;DHT22;66447;35.844;14.468;2023-06-10T09:03:09;24.50;118.99
76750;DHT22;66447;35.844;14.468;2023-06-10T09:18:10;24.24;118.99
76750;DHT22;66447;35.844;14.468;2023-06-10T09:33:13;25.40;118.99
76750;DHT22;66447;35.844;14.468;2023-06-10T09:48:17;24.73;118.99
76750;DHT22;66447;35.844;14.468;2023-06-10T10:03:24;25.83;118.99
76750;DHT22;66447;35.844;14.468;2023-06-10T10:18:29;25.56;118.99
76750;DHT22;66447;35.844;14.468;2023-06-10T10:33:59;28.09;118.99
76750;DHT22;66447;35.844;14.468;2023-06-10T10:49:03;29.50;118.99
76750;DHT22;66447;35.844;14.468;2023-06-10T11:04:07;30.92;118.99
76750;DHT22;66447;35.844;14.468;2023-06-10T11:19:09;30.67;118.99
76750;DHT22;66447;35.844;14.468;2023-06-10T11:34:12;29.33;118.99
76750;DHT22;66447;35.844;14.468;2023-06-10T11:49:13;28.91;118.99
76750;DHT22;66447;35.844;14.468;2023-06-10T12:04:15;30.22;118.99
76750;DHT22;66447;35.844;14.468;2023-06-10T12:19:18;32.63;118.99
76750;DHT22;66447;35.844;14.468;2023-06-10T12:34:20;34.05;118.99
76750;DHT22;66447;35.844;14.468;2023-06-10T12:49:21;34.38;118.99
76750;DHT22;66447;35.844;14.468;2023-06-10T13:04:27;33.02;118.99
76750;DHT22;66447;35.844;14.468;2023-06-10T13:19:28;31.72;118.99
76750;DHT22;66447;35.844;14.468;2023-06-10T13:34:29;31.29;118.99
76750;DHT22;66447;35.844;14.468;2023-06-10T13:49:30;32.07;118.99
76750;DHT22;66447;35.844;14.468;2023-06-10T14:04:31;31.37;118.99
76750;DHT22;66447;35.844;14.468;2023-06-10T14:19:33;31.82;118.99
76750;DHT22;66447;35.844;14.468;2023-06-10T14:34:34;31.42;118.99
76750;DHT22;66447;35.844;14.468;2023-06-10T14:49:35;29.78;118.99
76750;DHT22;66447;35.844;14.468;2023-06-10T15:04:36;27.35;118.99
76750;DHT22;66447;35.844;14.468;2023-06-10T15:19:37;26.54;118.99
76750;DHT22;66447;35.844;14.468;2023-06-10T15:34:38;25.48;118.99
76750;DHT22;66447;35.844;14.468;2023-06-10T15:49:40;25.05;118.99
76750;DHT22;66447;35.844;14.468;2023-06-10T16:04:41;27.70;118.99
76750;DHT22;66447;35.844;14.468;2023-06-10T16:19:42;27.53;118.99
76750;DHT22;66447;35.844;14.468;2023-06-10T16:34:43;27.75;118.99
76750;DHT22;66447;35.844;14.468;2023-06-10T16:49:44;27.71;118.99
76750;DHT22;66447;35.844;14.468;2023-06-10T17:04:45;25.57;118.99
76750;DHT22;66447;35.844;14.468;2023-06-10T17:19:46;24.90;118.99
76750;DHT22;66447;35.844;14.468;2023-06-10T17:34:47;26.35;118.99
76750;DHT22;66447;35.844;14.468;2023-06-10T17:49:48;26.51;118.99
76750;DHT22;66447;35.844;14.468;2023-06-10T18:04:49;26.31;118.99
76750;DHT22;66447;35.844;14.468;2023-06-10T18:19:50;25.20;118.99
76750;DHT22;66447;35.844;14.468;2023-06-10T18:34:51;25.90;118.99
76750;DHT22;66447;35.844;14.468;2023-06-10T18:49:53;27.38;118.99
76750;DHT22;66447;35.844;14.468;2023-06-10T19:04:54;26.93;118.99
76750;DHT22;66447;35.844;14.468;2023-06-10T19:19:55;27.24;118.99
76750;DHT22;66447;35.844;14.468;2023-06-10T19:34:56;26.68;118.99
76750;DHT22;66447;35.844;14.468;2023-06-10T19:49:58;25.68;118.99
76750;DHT22;66447;35.844;14.468;2023-06-10T20:04:59;24.79;118.99
76750;DHT22;66447;35.844;14.468;2023-06-10T20:20:00;25.83;118.99
76750;DHT22;66447;35.844;14.468;2023-06-10T20:35:02;25.37;118.99
76750;DHT22;66447;35.844;14.468;2023-06-10T20:50:03;26.61;118.99
76750;DHT22;66447;35.844;14.468;2023-06-10T21:05:05;25.88;118.99
76750;DHT22;66447;35.844;14.468;2023-06-10T21:20:06;24.24;118.99
76750;DHT22;66447;35.844;14.468;2023-06-10T21:35:08;25.45;118.99
76750;DHT22;66447;35.844;14.468;2023-06-10T21:50:09;26.32;118.99
76750;DHT22;66447;35.844;14.468;2023-06-10T22:05:10;24.98;118.99
76750;DHT22;66447;35.844;14.468;2023-06-10T22:20:12;25.19;118.99
76750;DHT22;66447;35.844;14.468;2023-06-10T22:35:13;24.31;118.99
76750;DHT22;66447;35.844;14.468;2023-06-10T22:50:14;24.13;118.99
76750;DHT22;66447;35.844;14.468;2023-06-10T23:05:15;24.05;118.99
76750;DHT22;66447;35.844;14.468;2023-06-10T23:20:16;24.17;118.99
76750;DHT22;66447;35.844;14.468;2023-06-10T23:35:20;25.27;118.99
76750;DHT22;66447;35.844;14.468;2023-06-10T23:50:21;25.20;118.99
